Time;durP1;ratioP1;P1;durP2;ratioP2;P2;SDS_P1;SDS_P2;PMS_P1;PMS_P2;Temp;Humidity;BMP_temperature;BMP_pressure;BME280_temperature;BME280_humidity;BME280_pressure;Samples;Min_cycle;Max_cycle;Signal;HPM_P1;HPM_P2
2021/08/27 00:00:10;;;;;;;8.73;4.37;;;12.20;99.90;;;;;;5053283;28;20471;-69
2021/08/27 00:02:37;;;;;;;4.27;3.10;;;12.20;99.90;;;;;;5053574;28;20463;-68
2021/08/27 00:05:05;;;;;;;3.97;3.57;;;12.20;99.90;;;;;;5053429;28;20466;-69
2021/08/27 00:07:31;;;;;;;5.50;3.70;;;12.30;99.90;;;;;;5052985;28;20851;-69
2021/08/27 00:09:58;;;;;;;5.50;3.40;;;12.30;99.90;;;;;;5053316;28;20459;-69
2021/08/27 00:12:26;;;;;;;6.73;3.50;;;12.30;99.90;;;;;;5053452;28;20467;-69
2021/08/27 00:14:53;;;;;;;5.80;3.67;;;12.40;99.90;;;;;;5052961;28;20490;-69
2021/08/27 00:17:29;;;;;;;4.93;3.20;;;12.40;99.90;;;;;;5052659;28;20479;-69
2021/08/27 00:19:56;;;;;;;6.47;3.30;;;12.40;99.90;;;;;;5051970;28;20896;-69
2021/08/27 00:22:22;;;;;;;6.23;3.30;;;12.50;99.90;;;;;;5053253;28;20467;-69
2021/08/27 00:24:49;;;;;;;4.93;3.20;;;12.50;99.90;;;;;;5053100;28;20554;-69
2021/08/27 00:27:16;;;;;;;6.37;3.10;;;12.50;99.90;;;;;;5052736;28;20491;-69
2021/08/27 00:29:44;;;;;;;3.80;3.10;;;12.50;99.90;;;;;;5052740;28;20470;-69
2021/08/27 00:32:11;;;;;;;5.67;3.77;;;12.50;99.90;;;;;;5052878;28;20474;-69
2021/08/27 00:34:37;;;;;;;8.73;3.60;;;12.60;99.90;;;;;;5052805;28;21014;-69
2021/08/27 00:37:05;;;;;;;4.70;3.23;;;12.60;99.90;;;;;;5052684;28;20479;-69
2021/08/27 00:39:31;;;;;;;3.90;2.70;;;12.70;99.90;;;;;;5052498;28;20873;-69
2021/08/27 00:41:59;;;;;;;4.10;3.47;;;12.70;99.90;;;;;;5052761;28;20467;-69
2021/08/27 00:44:26;;;;;;;3.83;3.33;;;12.70;99.90;;;;;;5052684;28;20459;-69
2021/08/27 00:46:54;;;;;;;4.30;3.33;;;12.80;99.90;;;;;;5052765;28;20521;-69
2021/08/27 00:49:21;;;;;;;4.60;3.20;;;12.80;99.90;;;;;;5052286;28;20463;-69
2021/08/27 00:51:48;;;;;;;6.83;3.50;;;12.80;99.90;;;;;;5052675;28;20963;-69
2021/08/27 00:54:15;;;;;;;4.63;3.30;;;12.80;99.90;;;;;;5052350;28;21010;-69
2021/08/27 00:56:41;;;;;;;3.93;2.90;;;12.80;99.90;;;;;;5052647;28;20544;-69
2021/08/27 00:59:09;;;;;;;4.33;2.93;;;12.90;99.90;;;;;;5051829;28;20962;-69
2021/08/27 01:01:35;;;;;;;4.30;3.83;;;12.90;99.90;;;;;;5085739;22;20510;-93
2021/08/27 01:04:04;;;;;;;3.17;2.87;;;12.90;99.90;;;;;;5059109;28;20451;-94
2021/08/27 01:06:38;;;;;;;4.00;2.93;;;13.00;99.90;;;;;;5060054;28;20455;-93
2021/08/27 01:09:07;;;;;;;7.87;3.13;;;13.00;99.90;;;;;;5063251;28;20447;-94
2021/08/27 01:11:41;;;;;;;4.33;2.83;;;13.00;99.90;;;;;;5063938;28;20479;-94
2021/08/27 01:14:15;;;;;;;4.03;2.60;;;13.00;99.90;;;;;;5076522;28;20574;-94
2021/08/27 01:16:48;;;;;;;4.60;2.90;;;13.00;99.90;;;;;;5059185;28;20455;-93
2021/08/27 01:19:42;;;;;;;6.10;3.10;;;13.00;99.90;;;;;;5058798;28;20463;-94
2021/08/27 01:22:39;;;;;;;5.27;3.07;;;13.10;99.90;;;;;;5059883;28;20475;-94
2021/08/27 01:25:06;;;;;;;4.13;3.00;;;13.10;99.90;;;;;;5060300;28;20466;-94
2021/08/27 01:27:35;;;;;;;2.90;2.60;;;13.10;99.90;;;;;;5059452;28;20471;-94
2021/08/27 01:30:07;;;;;;;3.43;3.03;;;13.10;99.90;;;;;;5058645;28;20456;-94
2021/08/27 01:32:41;;;;;;;6.17;3.27;;;13.10;99.90;;;;;;5058118;28;20482;-94
2021/08/27 01:35:11;;;;;;;4.67;3.30;;;13.10;99.90;;;;;;5060605;28;20486;-94
2021/08/27 01:37:40;;;;;;;7.60;3.10;;;13.10;99.90;;;;;;5058746;28;20473;-94
2021/08/27 01:40:09;;;;;;;4.80;3.20;;;13.10;99.90;;;;;;5058429;28;20992;-94
2021/08/27 01:42:38;;;;;;;4.40;2.93;;;13.10;99.90;;;;;;5058306;28;20479;-94
2021/08/27 01:45:06;;;;;;;4.53;3.43;;;13.10;99.90;;;;;;5058682;28;20462;-94
2021/08/27 01:47:35;;;;;;;5.73;3.10;;;13.10;99.90;;;;;;5058681;28;20990;-93
2021/08/27 01:50:03;;;;;;;4.67;3.00;;;13.10;99.90;;;;;;5059262;28;20475;-94
2021/08/27 01:52:32;;;;;;;3.70;2.60;;;13.20;99.90;;;;;;5058450;28;20476;-93
2021/08/27 01:55:00;;;;;;;4.07;3.00;;;13.10;99.90;;;;;;5057913;28;20475;-93
2021/08/27 01:57:28;;;;;;;5.43;3.57;;;13.10;99.90;;;;;;5058275;28;20459;-94
2021/08/27 01:59:56;;;;;;;3.13;2.70;;;13.20;99.90;;;;;;5060970;28;20459;-94
2021/08/27 02:02:23;;;;;;;6.60;3.23;;;13.20;99.90;;;;;;5065588;28;20486;-94
2021/08/27 02:04:54;;;;;;;4.50;3.40;;;13.20;99.90;;;;;;5066237;28;20856;-93
2021/08/27 02:07:21;;;;;;;6.70;3.47;;;13.20;99.90;;;;;;5063311;28;20837;-93
2021/08/27 02:09:51;;;;;;;7.00;3.50;;;13.20;99.90;;;;;;5059813;28;20470;-93
2021/08/27 02:12:19;;;;;;;6.43;3.40;;;13.20;99.90;;;;;;5063476;28;20482;-94
2021/08/27 02:14:49;;;;;;;3.03;2.73;;;13.20;99.90;;;;;;5063494;28;20479;-93
2021/08/27 02:17:16;;;;;;;4.03;3.17;;;13.20;99.90;;;;;;5064736;28;20455;-93
2021/08/27 02:19:43;;;;;;;5.97;3.27;;;13.20;99.90;;;;;;5064236;28;20465;-94
2021/08/27 02:22:14;;;;;;;3.40;2.77;;;13.30;99.90;;;;;;5059055;28;20494;-94
2021/08/27 02:24:45;;;;;;;3.70;2.83;;;13.30;99.90;;;;;;5058252;28;20504;-94
2021/08/27 02:27:14;;;;;;;6.50;3.67;;;13.30;99.90;;;;;;5058619;28;20460;-93
2021/08/27 02:29:43;;;;;;;7.17;3.57;;;13.30;99.90;;;;;;5057970;28;20470;-93
2021/08/27 02:32:12;;;;;;;3.40;2.63;;;13.30;99.90;;;;;;5058766;28;20498;-94
2021/08/27 02:34:42;;;;;;;5.17;2.87;;;13.30;99.90;;;;;;5058351;28;20507;-92
2021/08/27 02:37:12;;;;;;;6.53;3.27;;;13.30;99.90;;;;;;5058742;28;21048;-94
2021/08/27 02:39:39;;;;;;;4.10;3.03;;;13.40;99.90;;;;;;5058531;28;20478;-93
2021/08/27 02:42:06;;;;;;;7.00;3.33;;;13.30;99.90;;;;;;5057457;28;20482;-93
2021/08/27 02:44:35;;;;;;;5.30;3.13;;;13.40;99.90;;;;;;5058510;28;20459;-93
2021/08/27 02:47:02;;;;;;;4.20;2.90;;;13.40;99.90;;;;;;5059347;28;20456;-93
2021/08/27 02:49:29;;;;;;;5.43;3.33;;;13.40;99.90;;;;;;5059108;28;20466;-92
2021/08/27 02:52:04;;;;;;;6.60;3.53;;;13.40;99.90;;;;;;5057756;28;20487;-95
2021/08/27 02:54:35;;;;;;;5.93;3.60;;;13.40;99.90;;;;;;5057492;28;20475;-93
2021/08/27 02:57:04;;;;;;;3.63;3.13;;;13.40;99.90;;;;;;5058743;28;20459;-93
2021/08/27 02:59:32;;;;;;;4.13;3.03;;;13.40;99.90;;;;;;5059153;28;20473;-93
2021/08/27 03:02:03;;;;;;;5.37;4.07;;;13.40;99.90;;;;;;5057417;28;20521;-93
2021/08/27 03:04:41;;;;;;;4.40;3.60;;;13.40;99.90;;;;;;5057514;28;20456;-92
2021/08/27 03:07:10;;;;;;;5.07;4.00;;;13.40;99.90;;;;;;5057895;28;20463;-93
2021/08/27 03:09:49;;;;;;;4.07;3.23;;;13.40;99.90;;;;;;5057207;28;20470;-93
2021/08/27 03:12:22;;;;;;;5.97;4.20;;;13.40;99.90;;;;;;5059324;28;20483;-93
2021/08/27 03:14:54;;;;;;;6.27;4.10;;;13.40;99.90;;;;;;5061980;28;20479;-93
2021/08/27 03:17:24;;;;;;;5.77;4.57;;;13.40;99.90;;;;;;5057795;28;20457;-93
2021/08/27 03:19:57;;;;;;;5.60;4.50;;;13.40;99.90;;;;;;5057925;28;20478;-93
2021/08/27 03:22:28;;;;;;;9.30;4.40;;;13.40;99.90;;;;;;5057935;28;20479;-93
2021/08/27 03:24:59;;;;;;;5.40;4.90;;;13.40;99.90;;;;;;5057305;28;20463;-92
2021/08/27 03:27:30;;;;;;;6.40;4.70;;;13.40;99.90;;;;;;5052915;28;20459;-94
2021/08/27 03:30:01;;;;;;;5.67;4.37;;;13.40;99.90;;;;;;5054955;28;20835;-94
2021/08/27 03:32:31;;;;;;;8.73;5.30;;;13.40;99.90;;;;;;5056323;28;20486;-93
2021/08/27 03:34:59;;;;;;;7.17;5.87;;;13.30;99.90;;;;;;5061770;28;20478;-93
2021/08/27 03:37:30;;;;;;;9.10;5.67;;;13.30;99.90;;;;;;5083518;28;20452;-95
2021/08/27 03:40:00;;;;;;;5.20;4.57;;;13.30;99.90;;;;;;5076886;28;20463;-96
2021/08/27 03:42:28;;;;;;;9.50;5.50;;;13.30;99.90;;;;;;5038620;22;20485;-68
2021/08/27 03:44:54;;;;;;;7.13;5.93;;;13.30;99.90;;;;;;5008511;28;20457;-68
2021/08/27 03:47:22;;;;;;;7.87;6.00;;;13.30;99.90;;;;;;5018295;28;20489;-67
2021/08/27 03:49:50;;;;;;;7.67;6.70;;;13.30;99.90;;;;;;5019900;28;20468;-68
2021/08/27 03:52:17;;;;;;;7.13;6.47;;;13.30;99.90;;;;;;5021064;28;20448;-67
2021/08/27 03:54:44;;;;;;;7.87;6.97;;;13.30;99.90;;;;;;5021731;28;20491;-67
2021/08/27 03:57:12;;;;;;;11.30;8.10;;;13.30;99.90;;;;;;5021907;28;20463;-67
2021/08/27 03:59:39;;;;;;;8.40;7.00;;;13.30;99.90;;;;;;5012031;28;20469;-67
2021/08/27 04:02:07;;;;;;;7.00;6.20;;;13.30;99.90;;;;;;5011282;28;20839;-67
2021/08/27 04:04:34;;;;;;;8.60;6.50;;;13.30;99.90;;;;;;5011153;28;20828;-67
2021/08/27 04:07:03;;;;;;;10.30;6.93;;;13.20;99.90;;;;;;5013116;28;20477;-67
2021/08/27 04:09:31;;;;;;;8.03;6.13;;;13.20;99.90;;;;;;5012028;28;20465;-67
2021/08/27 04:11:59;;;;;;;11.13;6.10;;;13.20;99.90;;;;;;5018242;28;20459;-67
2021/08/27 04:14:26;;;;;;;9.07;6.60;;;13.20;99.90;;;;;;5022746;28;20461;-67
2021/08/27 04:16:53;;;;;;;7.67;6.30;;;13.20;99.90;;;;;;5023298;28;20481;-67
2021/08/27 04:19:20;;;;;;;6.70;5.43;;;13.10;99.90;;;;;;5021203;28;20461;-67
2021/08/27 04:21:47;;;;;;;8.30;6.53;;;13.20;99.90;;;;;;5023836;28;20469;-67
2021/08/27 04:24:15;;;;;;;5.83;4.80;;;13.10;99.90;;;;;;5022243;28;20460;-67
2021/08/27 04:26:41;;;;;;;8.30;6.60;;;13.10;99.90;;;;;;5022023;28;20480;-67
2021/08/27 04:29:11;;;;;;;9.27;5.40;;;13.20;99.90;;;;;;5021099;28;20471;-67
2021/08/27 04:31:38;;;;;;;9.27;7.00;;;13.20;99.90;;;;;;5011726;28;20824;-67
2021/08/27 04:34:04;;;;;;;9.07;5.47;;;13.10;99.90;;;;;;5010409;28;20457;-67
2021/08/27 04:36:31;;;;;;;7.33;5.67;;;13.10;99.90;;;;;;5012051;28;20500;-67
2021/08/27 04:38:58;;;;;;;6.90;4.67;;;13.10;99.90;;;;;;5012941;28;20461;-67
2021/08/27 04:41:26;;;;;;;5.83;5.13;;;13.10;99.90;;;;;;5013082;28;20472;-67
2021/08/27 04:43:52;;;;;;;4.83;4.40;;;13.10;99.90;;;;;;5013189;28;20461;-68
2021/08/27 04:46:20;;;;;;;6.60;5.33;;;13.10;99.90;;;;;;5013155;28;20513;-67
2021/08/27 04:48:46;;;;;;;6.70;5.03;;;13.10;99.90;;;;;;5012328;28;20564;-67
2021/08/27 04:51:13;;;;;;;6.70;6.00;;;13.00;99.90;;;;;;5013122;28;20465;-67
2021/08/27 04:53:40;;;;;;;5.27;4.77;;;13.00;99.90;;;;;;5012695;28;20465;-67
2021/08/27 04:56:06;;;;;;;8.03;5.10;;;13.00;99.90;;;;;;5012805;28;20576;-67
2021/08/27 04:58:34;;;;;;;7.47;5.53;;;13.00;99.90;;;;;;5012488;28;20839;-67
2021/08/27 05:01:01;;;;;;;5.30;4.80;;;13.00;99.90;;;;;;5012857;28;20660;-67
2021/08/27 05:03:28;;;;;;;6.33;5.70;;;13.10;99.90;;;;;;5012581;28;20957;-67
2021/08/27 05:05:55;;;;;;;8.80;6.30;;;13.00;99.90;;;;;;5011898;28;20465;-67
2021/08/27 05:08:21;;;;;;;7.10;6.13;;;13.00;99.90;;;;;;5011948;28;20468;-67
2021/08/27 05:10:48;;;;;;;7.83;6.10;;;13.00;99.90;;;;;;5012668;28;20461;-67
2021/08/27 05:13:15;;;;;;;8.90;7.63;;;13.10;99.90;;;;;;5012710;28;20465;-67
2021/08/27 05:15:43;;;;;;;7.60;6.90;;;13.00;99.90;;;;;;5012225;28;20493;-67
2021/08/27 05:18:09;;;;;;;8.80;7.07;;;13.00;99.90;;;;;;5012183;28;20485;-67
2021/08/27 05:20:36;;;;;;;8.67;7.50;;;13.00;99.90;;;;;;5012490;28;20823;-67
2021/08/27 05:23:03;;;;;;;10.80;7.23;;;13.00;99.90;;;;;;5012307;28;20469;-67
2021/08/27 05:25:30;;;;;;;10.57;8.23;;;13.00;99.90;;;;;;5012195;28;21186;-67
2021/08/27 05:27:57;;;;;;;9.60;7.67;;;13.10;99.90;;;;;;5011987;28;21004;-67
2021/08/27 05:30:23;;;;;;;11.30;8.70;;;13.00;99.90;;;;;;5012219;28;20489;-67
2021/08/27 05:32:52;;;;;;;11.63;8.50;;;13.10;99.90;;;;;;5012174;28;20466;-67
2021/08/27 05:35:19;;;;;;;10.43;8.43;;;13.10;99.90;;;;;;5012070;28;21011;-67
2021/08/27 05:37:46;;;;;;;11.40;9.43;;;13.10;99.90;;;;;;5011257;28;20493;-67
2021/08/27 05:40:13;;;;;;;10.50;9.40;;;13.10;99.90;;;;;;5012136;28;20512;-67
2021/08/27 05:42:41;;;;;;;15.23;8.40;;;13.10;99.90;;;;;;5011634;28;20472;-67
2021/08/27 05:45:09;;;;;;;9.93;8.77;;;13.20;99.90;;;;;;5011989;28;20464;-67
2021/08/27 05:47:36;;;;;;;11.83;9.33;;;13.20;99.90;;;;;;5011264;28;20492;-67
2021/08/27 05:50:06;;;;;;;11.50;9.77;;;13.20;99.90;;;;;;5012129;28;20469;-67
2021/08/27 05:52:33;;;;;;;13.90;9.10;;;13.30;99.90;;;;;;5011547;28;20472;-67
2021/08/27 05:54:59;;;;;;;9.63;8.43;;;13.20;99.90;;;;;;5011734;28;21020;-67
2021/08/27 05:57:26;;;;;;;11.40;8.60;;;13.20;99.90;;;;;;5011027;28;20504;-67
2021/08/27 05:59:53;;;;;;;9.00;7.57;;;13.30;99.90;;;;;;5011824;28;20469;-67
2021/08/27 06:02:20;;;;;;;9.10;7.47;;;13.30;99.90;;;;;;5011537;28;20465;-67
2021/08/27 06:04:47;;;;;;;9.77;7.07;;;13.20;99.90;;;;;;5011501;28;21000;-67
2021/08/27 06:07:15;;;;;;;8.37;6.30;;;13.30;99.90;;;;;;5011198;28;20494;-67
2021/08/27 06:09:42;;;;;;;12.93;7.77;;;13.20;99.90;;;;;;5011261;28;20469;-67
2021/08/27 06:12:10;;;;;;;8.17;7.37;;;13.20;99.90;;;;;;5011457;28;20551;-67
2021/08/27 06:14:37;;;;;;;6.80;6.10;;;13.20;99.90;;;;;;5011344;28;20461;-67
2021/08/27 06:17:04;;;;;;;10.53;6.23;;;13.20;99.90;;;;;;5011338;28;20898;-67
2021/08/27 06:19:30;;;;;;;6.93;5.80;;;13.30;99.90;;;;;;5010888;28;20465;-67
2021/08/27 06:21:58;;;;;;;9.20;6.07;;;13.30;99.90;;;;;;5011466;28;20932;-67
2021/08/27 06:24:26;;;;;;;8.77;6.27;;;13.30;99.90;;;;;;5011129;28;20456;-67
2021/08/27 06:26:53;;;;;;;6.40;5.20;;;13.30;99.90;;;;;;5011194;28;20490;-67
2021/08/27 06:29:20;;;;;;;5.80;5.20;;;13.40;99.90;;;;;;5010796;28;20461;-67
2021/08/27 06:31:47;;;;;;;5.03;4.30;;;13.40;99.90;;;;;;5011175;28;20464;-67
2021/08/27 06:34:13;;;;;;;7.83;7.07;;;13.50;99.90;;;;;;5010911;28;20468;-67
2021/08/27 06:36:40;;;;;;;5.17;4.67;;;13.60;99.90;;;;;;5010891;28;20512;-67
2021/08/27 06:39:07;;;;;;;5.83;4.20;;;13.70;99.90;;;;;;5010502;28;20461;-67
2021/08/27 06:41:35;;;;;;;5.20;4.70;;;13.70;99.90;;;;;;5011136;28;20826;-68
2021/08/27 06:44:02;;;;;;;5.97;4.10;;;13.70;99.90;;;;;;5010753;28;20959;-67
2021/08/27 06:46:30;;;;;;;10.30;4.13;;;13.70;99.90;;;;;;5010886;28;20477;-67
2021/08/27 06:48:56;;;;;;;5.07;4.40;;;13.70;99.90;;;;;;5010338;28;20472;-67
2021/08/27 06:51:23;;;;;;;4.73;4.33;;;13.70;99.90;;;;;;5010948;28;20464;-67
2021/08/27 06:53:53;;;;;;;7.53;4.53;;;13.70;99.90;;;;;;5010628;28;20976;-67
2021/08/27 06:56:20;;;;;;;4.33;3.93;;;13.80;99.90;;;;;;5010917;28;20868;-67
2021/08/27 06:58:48;;;;;;;5.87;4.10;;;13.90;99.90;;;;;;5010195;28;20814;-67
2021/08/27 07:01:15;;;;;;;5.97;4.60;;;13.90;99.90;;;;;;5080107;22;20459;-66
2021/08/27 07:03:41;;;;;;;5.90;4.70;;;14.00;99.90;;;;;;5043905;28;20510;-66
2021/08/27 07:06:08;;;;;;;5.57;3.73;;;14.10;99.90;;;;;;5033505;28;20471;-68
2021/08/27 07:08:35;;;;;;;5.17;4.20;;;14.10;99.90;;;;;;5050089;28;20982;-69
2021/08/27 07:11:01;;;;;;;4.20;3.80;;;14.20;99.90;;;;;;5050827;28;20870;-68
2021/08/27 07:13:28;;;;;;;4.37;3.97;;;14.20;99.90;;;;;;5050333;28;20451;-68
2021/08/27 07:15:56;;;;;;;5.90;3.63;;;14.20;99.90;;;;;;5050334;28;20483;-68
2021/08/27 07:18:23;;;;;;;4.13;3.70;;;14.30;99.90;;;;;;5049975;28;20554;-68
2021/08/27 07:20:50;;;;;;;5.13;4.10;;;14.30;99.90;;;;;;5050515;28;20521;-68
2021/08/27 07:23:17;;;;;;;8.80;3.63;;;14.40;99.90;;;;;;5050411;28;20463;-68
2021/08/27 07:25:44;;;;;;;5.70;3.20;;;14.40;99.90;;;;;;5050494;28;20464;-68
2021/08/27 07:28:11;;;;;;;4.97;3.50;;;14.40;99.90;;;;;;5050800;28;20574;-68
2021/08/27 07:30:39;;;;;;;4.97;3.37;;;14.40;99.90;;;;;;5054342;28;21026;-68
2021/08/27 07:33:08;;;;;;;4.03;3.43;;;14.50;99.90;;;;;;5054360;28;20459;-67
2021/08/27 07:35:34;;;;;;;4.13;2.87;;;14.50;99.90;;;;;;5054056;28;20515;-68
2021/08/27 07:38:01;;;;;;;3.57;2.77;;;14.60;99.90;;;;;;5053858;28;20479;-68
2021/08/27 07:40:28;;;;;;;4.80;2.87;;;14.70;99.90;;;;;;5054194;28;20459;-67
2021/08/27 07:42:55;;;;;;;4.57;3.00;;;14.70;99.90;;;;;;5054008;28;20958;-67
2021/08/27 07:45:21;;;;;;;3.70;2.77;;;14.80;99.90;;;;;;5054019;28;20467;-67
2021/08/27 07:47:48;;;;;;;5.33;2.80;;;14.90;99.90;;;;;;5053384;28;20998;-67
2021/08/27 07:50:16;;;;;;;3.70;2.40;;;15.00;99.90;;;;;;5054095;28;20463;-67
2021/08/27 07:52:43;;;;;;;4.17;2.57;;;15.10;99.90;;;;;;5053854;28;20977;-67
2021/08/27 07:55:10;;;;;;;2.87;1.97;;;15.20;99.90;;;;;;5053838;28;20464;-67
2021/08/27 07:57:41;;;;;;;5.63;2.23;;;15.30;99.90;;;;;;5052960;28;20494;-67
2021/08/27 08:00:09;;;;;;;3.37;2.20;;;15.40;99.90;;;;;;5053784;28;20463;-67
2021/08/27 08:02:36;;;;;;;4.80;2.10;;;15.50;99.90;;;;;;5053449;28;20497;-67
2021/08/27 08:05:03;;;;;;;2.87;1.93;;;15.50;99.90;;;;;;5053819;28;20738;-67
2021/08/27 08:07:32;;;;;;;3.13;2.30;;;15.60;99.90;;;;;;5052832;28;20479;-67
2021/08/27 08:09:58;;;;;;;7.40;2.43;;;15.60;99.90;;;;;;5053605;28;20466;-67
2021/08/27 08:12:25;;;;;;;2.77;1.90;;;15.70;99.90;;;;;;5053252;28;21161;-67
2021/08/27 08:14:55;;;;;;;3.33;1.80;;;15.60;99.90;;;;;;5053323;28;20958;-67
2021/08/27 08:17:22;;;;;;;2.67;1.60;;;15.60;99.90;;;;;;5051543;28;20498;-67
2021/08/27 08:19:48;;;;;;;3.60;1.63;;;15.60;99.90;;;;;;5053524;28;20466;-67
2021/08/27 08:22:17;;;;;;;2.27;2.00;;;15.50;99.90;;;;;;5053081;28;20470;-67
2021/08/27 08:24:45;;;;;;;1.67;1.57;;;15.40;99.90;;;;;;5053335;28;20562;-67
2021/08/27 08:27:11;;;;;;;2.93;1.80;;;15.30;99.90;;;;;;5052947;28;20479;-67
2021/08/27 08:29:38;;;;;;;1.83;1.40;;;15.40;99.90;;;;;;5053115;28;20466;-68
2021/08/27 08:32:06;;;;;;;2.53;1.60;;;15.50;99.90;;;;;;5052947;28;21001;-67
2021/08/27 08:34:33;;;;;;;4.40;1.37;;;15.60;99.90;;;;;;5053174;28;20558;-67
2021/08/27 08:37:00;;;;;;;4.33;2.07;;;15.70;99.90;;;;;;5053199;28;20490;-67
2021/08/27 08:39:27;;;;;;;2.80;1.77;;;15.70;99.90;;;;;;5051662;28;20954;-67
2021/08/27 08:41:55;;;;;;;2.40;1.47;;;15.70;99.90;;;;;;5052926;28;20463;-67
2021/08/27 08:44:21;;;;;;;2.63;1.97;;;15.70;99.90;;;;;;5052767;28;20459;-67
2021/08/27 08:46:48;;;;;;;3.30;1.80;;;15.90;99.90;;;;;;5052889;28;20475;-67
2021/08/27 08:49:17;;;;;;;5.83;2.23;;;15.90;99.90;;;;;;5052191;28;20471;-67
2021/08/27 08:51:46;;;;;;;2.67;1.73;;;15.80;99.90;;;;;;5052855;28;20467;-68
2021/08/27 08:54:16;;;;;;;3.87;1.80;;;15.80;99.90;;;;;;5052448;28;20460;-67
2021/08/27 08:56:43;;;;;;;3.00;1.90;;;15.90;99.90;;;;;;5052900;28;20872;-67
2021/08/27 08:59:11;;;;;;;3.97;1.90;;;16.10;99.90;;;;;;5051873;28;21008;-68
2021/08/27 09:01:38;;;;;;;1.50;1.40;;;16.30;99.90;;;;;;5052578;28;20475;-67
2021/08/27 09:04:06;;;;;;;1.83;1.63;;;16.50;99.90;;;;;;5052211;28;20533;-67
2021/08/27 09:06:34;;;;;;;3.53;2.20;;;16.70;99.90;;;;;;5052682;28;20480;-67
2021/08/27 09:09:01;;;;;;;2.80;1.90;;;16.90;99.90;;;;;;5051784;28;20466;-67
2021/08/27 09:11:29;;;;;;;1.83;1.47;;;17.00;99.90;;;;;;5052680;28;20460;-67
2021/08/27 09:13:57;;;;;;;2.60;1.67;;;17.00;99.90;;;;;;5052454;28;20460;-67
2021/08/27 09:16:26;;;;;;;3.90;1.50;;;16.70;99.90;;;;;;5052007;28;20487;-67
2021/08/27 09:18:54;;;;;;;2.00;1.67;;;16.50;99.90;;;;;;5051867;28;20459;-67
2021/08/27 09:21:44;;;;;;;2.27;1.30;;;16.30;99.90;;;;;;5052122;28;20463;-68
2021/08/27 09:24:20;;;;;;;3.93;1.80;;;16.10;99.90;;;;;;5052147;28;20550;-67
2021/08/27 09:26:50;;;;;;;2.70;1.60;;;16.00;99.90;;;;;;5052128;28;20482;-67
2021/08/27 09:29:32;;;;;;;2.80;2.23;;;16.00;99.90;;;;;;5051821;28;20462;-67
2021/08/27 09:32:01;;;;;;;2.33;1.50;;;16.10;99.90;;;;;;5051975;28;20459;-67
2021/08/27 09:34:29;;;;;;;4.93;1.80;;;16.10;99.90;;;;;;5052171;28;20459;-67
2021/08/27 09:36:58;;;;;;;2.07;1.30;;;16.10;99.90;;;;;;5051717;28;20487;-67
2021/08/27 09:39:33;;;;;;;2.07;1.80;;;16.00;99.90;;;;;;5051370;28;20529;-67
2021/08/27 09:42:01;;;;;;;3.13;2.53;;;15.90;99.90;;;;;;5051667;28;20470;-67
2021/08/27 09:44:27;;;;;;;2.20;1.90;;;15.80;99.90;;;;;;5051755;28;20470;-67
2021/08/27 09:46:54;;;;;;;5.27;2.20;;;15.70;99.90;;;;;;5051414;28;20486;-68
2021/08/27 09:49:28;;;;;;;3.00;2.00;;;15.60;99.90;;;;;;5051156;28;20497;-67
2021/08/27 09:51:55;;;;;;;3.40;1.73;;;15.60;99.90;;;;;;5051420;28;20467;-68
2021/08/27 09:54:24;;;;;;;2.53;1.90;;;15.50;99.90;;;;;;5051591;28;20460;-67
2021/08/27 09:56:53;;;;;;;4.53;2.10;;;15.40;99.90;;;;;;5051431;28;20491;-67
2021/08/27 09:59:31;;;;;;;3.80;2.10;;;15.40;99.90;;;;;;5051128;28;20466;-67
2021/08/27 10:01:58;;;;;;;3.30;1.80;;;15.30;99.90;;;;;;5051459;28;20845;-67
2021/08/27 10:04:26;;;;;;;2.27;1.67;;;15.40;99.90;;;;;;5051440;28;20877;-67
2021/08/27 10:06:52;;;;;;;4.37;1.90;;;15.40;99.90;;;;;;5051477;28;20483;-67
2021/08/27 10:09:19;;;;;;;3.93;2.00;;;15.50;99.90;;;;;;5051079;28;20496;-68
2021/08/27 10:11:48;;;;;;;3.10;1.90;;;15.60;99.90;;;;;;5051080;28;20959;-67
2021/08/27 10:14:15;;;;;;;3.03;2.30;;;15.50;99.90;;;;;;5050994;28;20915;-67
2021/08/27 10:16:44;;;;;;;3.80;2.37;;;15.50;99.90;;;;;;5051204;28;20491;-68
2021/08/27 10:19:12;;;;;;;4.20;2.50;;;15.50;99.90;;;;;;5050775;28;20464;-67
2021/08/27 10:21:40;;;;;;;4.63;2.80;;;15.40;99.90;;;;;;5051346;28;20466;-68
2021/08/27 10:24:07;;;;;;;2.37;2.17;;;15.40;99.90;;;;;;5050822;28;20455;-67
2021/08/27 10:26:34;;;;;;;2.70;2.50;;;15.30;99.90;;;;;;5051165;28;20849;-67
2021/08/27 10:29:05;;;;;;;2.93;2.40;;;15.30;99.90;;;;;;5050213;28;20463;-67
2021/08/27 10:31:43;;;;;;;2.73;2.27;;;15.40;99.90;;;;;;5051433;28;20495;-67
2021/08/27 10:34:11;;;;;;;5.10;2.80;;;15.30;99.90;;;;;;5050693;28;20832;-67
2021/08/27 10:36:41;;;;;;;2.50;2.30;;;15.30;99.90;;;;;;5050855;28;20721;-67
2021/08/27 10:39:08;;;;;;;2.97;2.20;;;15.30;99.90;;;;;;5050304;28;20470;-67
2021/08/27 10:41:39;;;;;;;4.57;2.00;;;15.40;99.90;;;;;;5051042;28;20470;-67
2021/08/27 10:44:08;;;;;;;3.13;2.13;;;15.50;99.90;;;;;;5050514;28;20467;-67
2021/08/27 10:47:07;;;;;;;2.20;2.03;;;15.60;99.90;;;;;;5051218;28;20475;-67
2021/08/27 10:49:54;;;;;;;2.60;1.77;;;15.70;99.90;;;;;;5050455;28;20459;-67
2021/08/27 10:52:30;;;;;;;3.90;1.90;;;15.70;99.90;;;;;;5050674;28;20462;-67
2021/08/27 10:55:18;;;;;;;2.00;1.80;;;15.70;99.90;;;;;;5050808;28;20459;-67
2021/08/27 10:58:01;;;;;;;3.30;1.90;;;15.70;99.90;;;;;;5050141;28;20994;-67
2021/08/27 11:00:40;;;;;;;2.43;1.83;;;15.80;99.90;;;;;;5050507;28;20495;-67
2021/08/27 11:03:08;;;;;;;3.67;2.00;;;15.80;99.90;;;;;;5049650;28;20471;-67
2021/08/27 11:05:41;;;;;;;3.00;2.20;;;15.80;99.90;;;;;;5050504;28;20459;-67
2021/08/27 11:08:12;;;;;;;2.20;1.70;;;15.70;99.90;;;;;;5050012;28;20475;-68
2021/08/27 11:10:41;;;;;;;3.03;2.13;;;15.70;99.90;;;;;;5050507;28;20947;-67
2021/08/27 11:13:12;;;;;;;2.47;1.90;;;15.80;99.90;;;;;;5050192;28;20470;-67
2021/08/27 11:15:40;;;;;;;4.97;2.00;;;15.80;99.90;;;;;;5050350;28;20985;-67
2021/08/27 11:18:24;;;;;;;2.67;1.80;;;15.90;99.90;;;;;;5049779;28;20487;-67
2021/08/27 11:20:52;;;;;;;3.53;2.50;;;16.10;99.90;;;;;;5049141;28;20549;-67
2021/08/27 11:23:20;;;;;;;4.00;1.87;;;16.10;99.90;;;;;;5050234;28;20815;-67
2021/08/27 11:26:02;;;;;;;3.63;2.03;;;16.20;99.90;;;;;;5050374;28;20471;-67
2021/08/27 11:28:32;;;;;;;3.03;2.67;;;16.20;99.90;;;;;;5050254;28;20506;-67
2021/08/27 11:31:03;;;;;;;3.67;2.60;;;16.10;99.90;;;;;;5050252;28;20448;-67
2021/08/27 11:34:00;;;;;;;5.23;2.10;;;16.10;99.90;;;;;;5050360;28;20455;-67
2021/08/27 11:36:33;;;;;;;4.53;2.53;;;16.00;99.90;;;;;;5050392;28;20515;-67
2021/08/27 11:39:01;;;;;;;3.27;2.40;;;15.90;99.90;;;;;;5049899;28;20455;-67
2021/08/27 11:41:28;;;;;;;3.77;2.30;;;15.90;99.90;;;;;;5050435;28;20490;-67
2021/08/27 11:44:19;;;;;;;4.83;2.27;;;16.00;99.90;;;;;;5049901;28;20993;-67
2021/08/27 11:46:49;;;;;;;3.40;2.10;;;16.00;99.90;;;;;;5041749;28;20483;-67
2021/08/27 11:49:29;;;;;;;1.77;1.67;;;16.10;99.90;;;;;;5049472;28;20463;-67
2021/08/27 11:52:14;;;;;;;2.97;2.53;;;16.20;99.90;;;;;;5050459;28;20462;-67
2021/08/27 11:54:42;;;;;;;3.60;2.20;;;16.40;99.90;;;;;;5050274;28;20549;-66
2021/08/27 11:57:21;;;;;;;2.40;2.20;;;16.50;99.90;;;;;;5049584;28;21016;-67
2021/08/27 11:59:48;;;;;;;4.73;2.10;;;16.60;99.90;;;;;;5050211;28;20474;-67
2021/08/27 12:02:17;;;;;;;2.20;1.90;;;16.60;99.90;;;;;;5049696;28;20471;-67
2021/08/27 12:04:44;;;;;;;3.17;2.17;;;16.60;99.90;;;;;;5050236;28;20482;-67
2021/08/27 12:07:13;;;;;;;4.03;1.90;;;16.50;99.90;;;;;;5049575;28;20480;-66
2021/08/27 12:09:42;;;;;;;4.70;1.90;;;16.50;99.90;;;;;;5049941;28;20464;-67
2021/08/27 12:12:30;;;;;;;2.20;2.00;;;16.70;99.90;;;;;;5049932;28;20459;-67
2021/08/27 12:14:56;;;;;;;3.90;1.80;;;16.70;99.90;;;;;;5051660;28;20495;-67
2021/08/27 12:17:25;;;;;;;3.03;2.10;;;16.90;99.90;;;;;;5052737;28;20925;-67
2021/08/27 12:19:53;;;;;;;3.80;1.60;;;17.20;99.90;;;;;;5053589;28;20464;-67
2021/08/27 12:22:21;;;;;;;2.73;1.90;;;17.60;99.90;;;;;;5053247;28;20620;-67
2021/08/27 12:24:51;;;;;;;4.00;2.00;;;17.90;99.90;;;;;;5053473;28;20459;-66
2021/08/27 12:27:19;;;;;;;4.23;2.10;;;18.20;99.90;;;;;;5052621;28;20475;-67
2021/08/27 12:29:45;;;;;;;3.30;2.00;;;18.40;99.90;;;;;;5053439;28;20456;-66
2021/08/27 12:32:16;;;;;;;2.30;1.97;;;18.30;99.90;;;;;;5052971;28;20459;-67
2021/08/27 12:34:47;;;;;;;3.30;2.50;;;18.00;99.90;;;;;;5053396;28;21002;-67
2021/08/27 12:37:16;;;;;;;3.03;1.83;;;17.70;99.90;;;;;;5052736;28;20490;-67
2021/08/27 12:39:43;;;;;;;3.00;1.87;;;17.80;99.90;;;;;;5053337;28;20474;-67
2021/08/27 12:42:16;;;;;;;3.50;1.97;;;18.00;99.90;;;;;;5053005;28;20466;-67
2021/08/27 12:45:02;;;;;;;4.53;2.37;;;18.30;99.90;;;;;;5052894;28;20459;-67
2021/08/27 12:47:37;;;;;;;2.40;1.90;;;18.60;99.90;;;;;;5052523;28;21008;-67
2021/08/27 12:50:11;;;;;;;3.00;2.03;;;18.90;99.90;;;;;;5053048;28;20469;-67
2021/08/27 12:52:39;;;;;;;2.90;1.80;;;19.10;99.90;;;;;;5052986;28;20455;-67
2021/08/27 12:55:20;;;;;;;2.93;2.10;;;19.40;99.90;;;;;;5053156;28;20470;-67